sensor_id;sensor_type;location;lat;lon;timestamp;temperature;humidity
5334;DHT22;2689;50.954;7.116;2023-02-01T00:02:09;8.20;99.90
5334;DHT22;2689;50.954;7.116;2023-02-01T00:04:38;7.60;99.90
5334;DHT22;2689;50.954;7.116;2023-02-01T00:07:13;7.60;99.90
5334;DHT22;2689;50.954;7.116;2023-02-01T00:09:40;7.60;99.90
5334;DHT22;2689;50.954;7.116;2023-02-01T00:12:10;7.90;99.90
5334;DHT22;2689;50.954;7.116;2023-02-01T00:14:37;7.50;99.90
5334;DHT22;2689;50.954;7.116;2023-02-01T00:17:05;7.50;99.90
5334;DHT22;2689;50.954;7.116;2023-02-01T00:19:34;7.40;99.90
5334;DHT22;2689;50.954;7.116;2023-02-01T00:22:01;7.40;99.90
5334;DHT22;2689;50.954;7.116;2023-02-01T00:24:28;7.30;99.90
5334;DHT22;2689;50.954;7.116;2023-02-01T00:26:54;7.40;99.90
5334;DHT22;2689;50.954;7.116;2023-02-01T00:29:30;7.90;99.90
5334;DHT22;2689;50.954;7.116;2023-02-01T00:31:58;7.60;99.90
5334;DHT22;2689;50.954;7.116;2023-02-01T00:34:27;7.50;99.90
5334;DHT22;2689;50.954;7.116;2023-02-01T00:36:55;7.30;99.90
5334;DHT22;2689;50.954;7.116;2023-02-01T00:39:22;7.80;99.90
5334;DHT22;2689;50.954;7.116;2023-02-01T00:41:49;7.40;99.90
5334;DHT22;2689;50.954;7.116;2023-02-01T00:44:16;7.40;99.90
5334;DHT22;2689;50.954;7.116;2023-02-01T00:46:43;7.20;99.90
5334;DHT22;2689;50.954;7.116;2023-02-01T00:49:10;7.40;99.90
5334;DHT22;2689;50.954;7.116;2023-02-01T00:51:36;8.10;99.90
5334;DHT22;2689;50.954;7.116;2023-02-01T00:54:12;7.30;99.90
5334;DHT22;2689;50.954;7.116;2023-02-01T00:56:38;7.40;99.90
5334;DHT22;2689;50.954;7.116;2023-02-01T00:59:10;7.40;99.90
5334;DHT22;2689;50.954;7.116;2023-02-01T01:01:38;7.50;99.90
5334;DHT22;2689;50.954;7.116;2023-02-01T01:04:17;7.50;99.90
5334;DHT22;2689;50.954;7.116;2023-02-01T01:06:44;7.60;99.90
5334;DHT22;2689;50.954;7.116;2023-02-01T01:09:12;7.20;99.90
5334;DHT22;2689;50.954;7.116;2023-02-01T01:11:39;8.30;99.90
5334;DHT22;2689;50.954;7.116;2023-02-01T01:14:08;7.40;99.90
5334;DHT22;2689;50.954;7.116;2023-02-01T01:16:35;7.50;99.90
5334;DHT22;2689;50.954;7.116;2023-02-01T01:19:02;7.30;99.90
5334;DHT22;2689;50.954;7.116;2023-02-01T01:21:30;7.40;99.90
5334;DHT22;2689;50.954;7.116;2023-02-01T01:23:57;7.40;99.90
5334;DHT22;2689;50.954;7.116;2023-02-01T01:26:26;8.50;99.90
5334;DHT22;2689;50.954;7.116;2023-02-01T01:29:02;7.70;99.90
5334;DHT22;2689;50.954;7.116;2023-02-01T01:31:35;7.40;99.90
5334;DHT22;2689;50.954;7.116;2023-02-01T01:34:12;7.10;99.90
5334;DHT22;2689;50.954;7.116;2023-02-01T01:36:53;8.10;99.90
5334;DHT22;2689;50.954;7.116;2023-02-01T01:39:20;7.30;99.90
5334;DHT22;2689;50.954;7.116;2023-02-01T01:41:48;7.30;99.90
5334;DHT22;2689;50.954;7.116;2023-02-01T01:47:33;7.30;99.90
5334;DHT22;2689;50.954;7.116;2023-02-01T01:50:03;7.20;99.90
5334;DHT22;2689;50.954;7.116;2023-02-01T01:52:30;7.20;99.90
5334;DHT22;2689;50.954;7.116;2023-02-01T01:54:58;7.20;99.90
5334;DHT22;2689;50.954;7.116;2023-02-01T01:57:29;7.20;99.90
5334;DHT22;2689;50.954;7.116;2023-02-01T02:00:03;7.20;99.90
5334;DHT22;2689;50.954;7.116;2023-02-01T02:02:37;7.20;99.90
5334;DHT22;2689;50.954;7.116;2023-02-01T02:05:06;7.20;99.90
5334;DHT22;2689;50.954;7.116;2023-02-01T02:07:36;7.10;99.90
5334;DHT22;2689;50.954;7.116;2023-02-01T02:10:05;7.10;99.90
5334;DHT22;2689;50.954;7.116;2023-02-01T02:12:33;7.10;99.90
5334;DHT22;2689;50.954;7.116;2023-02-01T02:15:00;7.10;99.90
5334;DHT22;2689;50.954;7.116;2023-02-01T02:17:33;7.10;99.90
5334;DHT22;2689;50.954;7.116;2023-02-01T02:20:29;7.10;99.90
5334;DHT22;2689;50.954;7.116;2023-02-01T02:23:18;7.10;99.90
5334;DHT22;2689;50.954;7.116;2023-02-01T02:26:17;7.10;99.90
5334;DHT22;2689;50.954;7.116;2023-02-01T02:29:07;7.10;99.90
5334;DHT22;2689;50.954;7.116;2023-02-01T02:31:59;7.10;99.90
5334;DHT22;2689;50.954;7.116;2023-02-01T02:34:39;7.10;99.90
5334;DHT22;2689;50.954;7.116;2023-02-01T02:37:25;7.10;99.90
5334;DHT22;2689;50.954;7.116;2023-02-01T02:40:04;7.00;99.90
5334;DHT22;2689;50.954;7.116;2023-02-01T02:42:39;7.10;99.90
5334;DHT22;2689;50.954;7.116;2023-02-01T02:45:28;7.10;99.90
5334;DHT22;2689;50.954;7.116;2023-02-01T02:48:19;7.10;99.90
5334;DHT22;2689;50.954;7.116;2023-02-01T02:50:51;7.10;99.90
5334;DHT22;2689;50.954;7.116;2023-02-01T02:53:45;7.10;99.90
5334;DHT22;2689;50.954;7.116;2023-02-01T02:56:32;7.10;99.90
5334;DHT22;2689;50.954;7.116;2023-02-01T02:59:20;7.10;99.90
5334;DHT22;2689;50.954;7.116;2023-02-01T03:02:20;7.10;99.90
5334;DHT22;2689;50.954;7.116;2023-02-01T03:05:06;7.10;99.90
5334;DHT22;2689;50.954;7.116;2023-02-01T03:08:02;7.10;99.90
5334;DHT22;2689;50.954;7.116;2023-02-01T03:10:42;7.10;99.90
5334;DHT22;2689;50.954;7.116;2023-02-01T03:13:13;7.10;99.90
5334;DHT22;2689;50.954;7.116;2023-02-01T03:15:46;7.00;99.90
5334;DHT22;2689;50.954;7.116;2023-02-01T03:18:20;7.10;99.90
5334;DHT22;2689;50.954;7.116;2023-02-01T03:20:52;7.10;99.90
5334;DHT22;2689;50.954;7.116;2023-02-01T03:23:26;7.10;99.90
5334;DHT22;2689;50.954;7.116;2023-02-01T03:25:55;7.50;99.90
5334;DHT22;2689;50.954;7.116;2023-02-01T03:28:25;7.10;99.90
5334;DHT22;2689;50.954;7.116;2023-02-01T03:30:54;7.10;99.90
5334;DHT22;2689;50.954;7.116;2023-02-01T03:33:23;7.20;99.90
5334;DHT22;2689;50.954;7.116;2023-02-01T03:36:20;7.10;99.90
5334;DHT22;2689;50.954;7.116;2023-02-01T03:39:07;7.20;99.90
5334;DHT22;2689;50.954;7.116;2023-02-01T03:41:40;7.20;99.90
5334;DHT22;2689;50.954;7.116;2023-02-01T03:44:13;7.10;99.90
5334;DHT22;2689;50.954;7.116;2023-02-01T03:46:43;7.10;99.90
5334;DHT22;2689;50.954;7.116;2023-02-01T03:49:18;7.90;99.90
5334;DHT22;2689;50.954;7.116;2023-02-01T03:51:48;7.20;99.90
5334;DHT22;2689;50.954;7.116;2023-02-01T03:54:18;7.20;99.90
5334;DHT22;2689;50.954;7.116;2023-02-01T03:56:46;7.20;99.90
5334;DHT22;2689;50.954;7.116;2023-02-01T03:59:14;7.20;99.90
5334;DHT22;2689;50.954;7.116;2023-02-01T04:01:41;7.20;99.90
5334;DHT22;2689;50.954;7.116;2023-02-01T04:04:18;7.20;99.90
5334;DHT22;2689;50.954;7.116;2023-02-01T04:07:01;7.20;99.90
5334;DHT22;2689;50.954;7.116;2023-02-01T04:09:29;7.20;99.90
5334;DHT22;2689;50.954;7.116;2023-02-01T04:11:56;7.90;99.90
5334;DHT22;2689;50.954;7.116;2023-02-01T04:14:22;7.20;99.90
5334;DHT22;2689;50.954;7.116;2023-02-01T04:16:49;7.20;99.90
5334;DHT22;2689;50.954;7.116;2023-02-01T04:19:16;7.20;99.90
5334;DHT22;2689;50.954;7.116;2023-02-01T04:21:43;7.20;99.90
5334;DHT22;2689;50.954;7.116;2023-02-01T04:24:10;7.20;99.90
5334;DHT22;2689;50.954;7.116;2023-02-01T04:26:38;7.20;99.90
5334;DHT22;2689;50.954;7.116;2023-02-01T04:29:05;7.20;99.90
5334;DHT22;2689;50.954;7.116;2023-02-01T04:31:31;7.20;99.90
5334;DHT22;2689;50.954;7.116;2023-02-01T04:33:59;7.20;99.90
5334;DHT22;2689;50.954;7.116;2023-02-01T04:36:36;7.20;99.90
5334;DHT22;2689;50.954;7.116;2023-02-01T04:39:12;7.30;99.90
5334;DHT22;2689;50.954;7.116;2023-02-01T04:41:40;7.20;99.90
5334;DHT22;2689;50.954;7.116;2023-02-01T04:44:13;7.20;99.90
5334;DHT22;2689;50.954;7.116;2023-02-01T04:46:40;7.20;99.90
5334;DHT22;2689;50.954;7.116;2023-02-01T04:49:08;7.20;99.90
5334;DHT22;2689;50.954;7.116;2023-02-01T04:51:35;7.20;99.90
5334;DHT22;2689;50.954;7.116;2023-02-01T04:54:03;7.20;99.90
5334;DHT22;2689;50.954;7.116;2023-02-01T04:56:30;7.10;99.90
5334;DHT22;2689;50.954;7.116;2023-02-01T04:58:58;7.00;99.90
5334;DHT22;2689;50.954;7.116;2023-02-01T05:01:25;6.90;99.90
5334;DHT22;2689;50.954;7.116;2023-02-01T05:03:52;6.80;99.90
5334;DHT22;2689;50.954;7.116;2023-02-01T05:06:31;6.80;99.90
5334;DHT22;2689;50.954;7.116;2023-02-01T05:09:04;6.90;99.90
5334;DHT22;2689;50.954;7.116;2023-02-01T05:11:31;6.80;99.90
5334;DHT22;2689;50.954;7.116;2023-02-01T05:14:17;6.80;99.90
5334;DHT22;2689;50.954;7.116;2023-02-01T05:16:44;6.80;99.90
5334;DHT22;2689;50.954;7.116;2023-02-01T05:19:11;6.70;99.90
5334;DHT22;2689;50.954;7.116;2023-02-01T05:21:38;6.70;99.90
5334;DHT22;2689;50.954;7.116;2023-02-01T05:24:05;6.70;99.90
5334;DHT22;2689;50.954;7.116;2023-02-01T05:26:42;6.70;99.90
5334;DHT22;2689;50.954;7.116;2023-02-01T05:29:09;6.60;99.90
5334;DHT22;2689;50.954;7.116;2023-02-01T05:31:38;6.70;99.90
5334;DHT22;2689;50.954;7.116;2023-02-01T05:34:06;6.60;99.90
5334;DHT22;2689;50.954;7.116;2023-02-01T05:36:42;7.40;99.90
5334;DHT22;2689;50.954;7.116;2023-02-01T05:39:34;6.60;99.90
5334;DHT22;2689;50.954;7.116;2023-02-01T05:42:01;6.50;99.90
5334;DHT22;2689;50.954;7.116;2023-02-01T05:44:28;6.50;99.90
5334;DHT22;2689;50.954;7.116;2023-02-01T05:46:56;6.50;99.90
5334;DHT22;2689;50.954;7.116;2023-02-01T05:49:23;6.50;99.90
5334;DHT22;2689;50.954;7.116;2023-02-01T05:51:49;6.50;99.90
5334;DHT22;2689;50.954;7.116;2023-02-01T05:54:16;6.50;99.90
5334;DHT22;2689;50.954;7.116;2023-02-01T05:56:43;6.50;99.90
5334;DHT22;2689;50.954;7.116;2023-02-01T05:59:10;6.50;99.90
5334;DHT22;2689;50.954;7.116;2023-02-01T06:01:38;6.40;99.90
5334;DHT22;2689;50.954;7.116;2023-02-01T06:04:07;6.40;99.90
5334;DHT22;2689;50.954;7.116;2023-02-01T06:06:41;6.40;99.90
5334;DHT22;2689;50.954;7.116;2023-02-01T06:09:30;6.50;99.90
5334;DHT22;2689;50.954;7.116;2023-02-01T06:12:02;6.50;99.90
5334;DHT22;2689;50.954;7.116;2023-02-01T06:14:30;6.50;99.90
5334;DHT22;2689;50.954;7.116;2023-02-01T06:16:57;7.40;99.90
5334;DHT22;2689;50.954;7.116;2023-02-01T06:19:27;6.60;99.90
5334;DHT22;2689;50.954;7.116;2023-02-01T06:21:54;6.60;99.90
5334;DHT22;2689;50.954;7.116;2023-02-01T06:24:21;6.60;99.90
5334;DHT22;2689;50.954;7.116;2023-02-01T06:26:48;6.60;99.90
5334;DHT22;2689;50.954;7.116;2023-02-01T06:29:15;6.90;99.90
5334;DHT22;2689;50.954;7.116;2023-02-01T06:31:42;6.60;99.90
5334;DHT22;2689;50.954;7.116;2023-02-01T06:34:09;6.50;99.90
5334;DHT22;2689;50.954;7.116;2023-02-01T06:36:38;6.50;99.90
5334;DHT22;2689;50.954;7.116;2023-02-01T06:39:06;7.00;99.90
5334;DHT22;2689;50.954;7.116;2023-02-01T06:41:50;6.50;99.90
5334;DHT22;2689;50.954;7.116;2023-02-01T06:44:25;6.60;99.90
5334;DHT22;2689;50.954;7.116;2023-02-01T06:46:52;7.30;99.90
5334;DHT22;2689;50.954;7.116;2023-02-01T06:49:20;6.50;99.90
5334;DHT22;2689;50.954;7.116;2023-02-01T06:51:50;6.90;99.90
5334;DHT22;2689;50.954;7.116;2023-02-01T06:54:34;6.60;99.90
5334;DHT22;2689;50.954;7.116;2023-02-01T07:00:41;6.80;99.90
5334;DHT22;2689;50.954;7.116;2023-02-01T07:03:54;6.30;99.90
5334;DHT22;2689;50.954;7.116;2023-02-01T07:18:30;6.80;99.90
5334;DHT22;2689;50.954;7.116;2023-02-01T07:21:05;6.80;99.90
5334;DHT22;2689;50.954;7.116;2023-02-01T07:23:33;6.50;99.90
5334;DHT22;2689;50.954;7.116;2023-02-01T07:26:05;6.90;99.90
5334;DHT22;2689;50.954;7.116;2023-02-01T07:28:34;6.60;99.90
5334;DHT22;2689;50.954;7.116;2023-02-01T07:31:03;6.70;99.90
5334;DHT22;2689;50.954;7.116;2023-02-01T07:33:32;6.80;99.90
5334;DHT22;2689;50.954;7.116;2023-02-01T07:36:01;6.80;99.90
5334;DHT22;2689;50.954;7.116;2023-02-01T07:38:28;6.80;99.90
5334;DHT22;2689;50.954;7.116;2023-02-01T07:40:57;6.80;99.90
5334;DHT22;2689;50.954;7.116;2023-02-01T07:43:25;6.80;99.90
5334;DHT22;2689;50.954;7.116;2023-02-01T07:45:52;6.80;99.90
5334;DHT22;2689;50.954;7.116;2023-02-01T07:48:20;6.80;99.90
5334;DHT22;2689;50.954;7.116;2023-02-01T07:50:56;6.80;99.90
5334;DHT22;2689;50.954;7.116;2023-02-01T07:53:22;6.80;99.90
5334;DHT22;2689;50.954;7.116;2023-02-01T07:55:49;7.10;99.90
5334;DHT22;2689;50.954;7.116;2023-02-01T07:58:16;6.80;99.90
5334;DHT22;2689;50.954;7.116;2023-02-01T08:00:43;6.80;99.90
5334;DHT22;2689;50.954;7.116;2023-02-01T08:03:27;6.80;99.90
5334;DHT22;2689;50.954;7.116;2023-02-01T08:05:55;6.80;99.90
5334;DHT22;2689;50.954;7.116;2023-02-01T08:08:22;7.20;99.90
5334;DHT22;2689;50.954;7.116;2023-02-01T08:10:49;6.80;99.90
5334;DHT22;2689;50.954;7.116;2023-02-01T08:13:16;6.80;99.90
5334;DHT22;2689;50.954;7.116;2023-02-01T08:15:43;6.80;99.90
5334;DHT22;2689;50.954;7.116;2023-02-01T08:18:09;6.80;99.90
5334;DHT22;2689;50.954;7.116;2023-02-01T08:20:36;6.90;99.90
5334;DHT22;2689;50.954;7.116;2023-02-01T08:23:09;6.80;99.90
5334;DHT22;2689;50.954;7.116;2023-02-01T08:25:35;6.80;99.90
5334;DHT22;2689;50.954;7.116;2023-02-01T08:28:02;6.80;99.90
5334;DHT22;2689;50.954;7.116;2023-02-01T08:30:29;6.80;99.90
5334;DHT22;2689;50.954;7.116;2023-02-01T08:32:56;6.80;99.90
5334;DHT22;2689;50.954;7.116;2023-02-01T08:35:22;6.80;99.90
5334;DHT22;2689;50.954;7.116;2023-02-01T08:37:50;6.80;99.90
5334;DHT22;2689;50.954;7.116;2023-02-01T08:40:18;6.80;99.90
5334;DHT22;2689;50.954;7.116;2023-02-01T08:42:47;6.80;99.90
5334;DHT22;2689;50.954;7.116;2023-02-01T08:45:20;6.50;99.90
5334;DHT22;2689;50.954;7.116;2023-02-01T08:47:49;6.80;99.90
5334;DHT22;2689;50.954;7.116;2023-02-01T08:50:17;6.80;99.90
5334;DHT22;2689;50.954;7.116;2023-02-01T08:52:44;6.90;99.90
5334;DHT22;2689;50.954;7.116;2023-02-01T08:55:11;6.90;99.90
5334;DHT22;2689;50.954;7.116;2023-02-01T08:57:39;6.80;99.90
5334;DHT22;2689;50.954;7.116;2023-02-01T09:00:08;6.90;99.90
5334;DHT22;2689;50.954;7.116;2023-02-01T09:02:37;7.10;99.90
5334;DHT22;2689;50.954;7.116;2023-02-01T09:05:04;7.00;99.90
5334;DHT22;2689;50.954;7.116;2023-02-01T09:07:32;7.10;99.90
5334;DHT22;2689;50.954;7.116;2023-02-01T09:09:59;7.60;99.90
5334;DHT22;2689;50.954;7.116;2023-02-01T09:12:26;7.10;99.90
5334;DHT22;2689;50.954;7.116;2023-02-01T09:14:55;7.20;99.90
5334;DHT22;2689;50.954;7.116;2023-02-01T09:17:24;7.20;99.90
5334;DHT22;2689;50.954;7.116;2023-02-01T09:19:55;7.80;99.90
5334;DHT22;2689;50.954;7.116;2023-02-01T09:22:21;7.30;99.90
5334;DHT22;2689;50.954;7.116;2023-02-01T09:24:48;7.30;99.90
5334;DHT22;2689;50.954;7.116;2023-02-01T09:27:15;7.30;99.90
5334;DHT22;2689;50.954;7.116;2023-02-01T09:29:42;7.50;99.90
5334;DHT22;2689;50.954;7.116;2023-02-01T09:32:10;7.40;99.90
5334;DHT22;2689;50.954;7.116;2023-02-01T09:34:36;7.50;99.90
5334;DHT22;2689;50.954;7.116;2023-02-01T09:37:03;7.50;99.90
5334;DHT22;2689;50.954;7.116;2023-02-01T09:39:30;7.50;99.90
5334;DHT22;2689;50.954;7.116;2023-02-01T09:42:06;7.40;99.90
5334;DHT22;2689;50.954;7.116;2023-02-01T09:44:52;7.50;99.90
5334;DHT22;2689;50.954;7.116;2023-02-01T09:47:24;7.50;99.90
5334;DHT22;2689;50.954;7.116;2023-02-01T09:49:56;7.40;99.90
5334;DHT22;2689;50.954;7.116;2023-02-01T09:52:28;7.50;99.90
5334;DHT22;2689;50.954;7.116;2023-02-01T09:55:01;7.50;99.90
5334;DHT22;2689;50.954;7.116;2023-02-01T09:57:41;7.50;99.90
5334;DHT22;2689;50.954;7.116;2023-02-01T10:00:17;7.50;99.90
5334;DHT22;2689;50.954;7.116;2023-02-01T10:02:48;7.50;99.90
5334;DHT22;2689;50.954;7.116;2023-02-01T10:05:20;7.50;99.90
5334;DHT22;2689;50.954;7.116;2023-02-01T10:07:58;7.40;99.90
5334;DHT22;2689;50.954;7.116;2023-02-01T10:10:38;7.50;99.90
5334;DHT22;2689;50.954;7.116;2023-02-01T10:16:16;7.60;99.90
5334;DHT22;2689;50.954;7.116;2023-02-01T10:19:15;7.60;99.90
5334;DHT22;2689;50.954;7.116;2023-02-01T10:21:51;7.60;99.90
5334;DHT22;2689;50.954;7.116;2023-02-01T10:24:44;7.60;99.90
5334;DHT22;2689;50.954;7.116;2023-02-01T10:27:15;7.70;99.90
5334;DHT22;2689;50.954;7.116;2023-02-01T10:29:44;7.80;99.90
5334;DHT22;2689;50.954;7.116;2023-02-01T10:32:17;7.90;99.90
5334;DHT22;2689;50.954;7.116;2023-02-01T10:34:49;7.90;99.90
5334;DHT22;2689;50.954;7.116;2023-02-01T10:37:24;7.90;99.90
5334;DHT22;2689;50.954;7.116;2023-02-01T10:39:54;7.90;99.90
5334;DHT22;2689;50.954;7.116;2023-02-01T10:42:25;8.00;99.90
5334;DHT22;2689;50.954;7.116;2023-02-01T10:44:54;8.00;99.90
5334;DHT22;2689;50.954;7.116;2023-02-01T10:47:22;8.10;99.90
5334;DHT22;2689;50.954;7.116;2023-02-01T10:49:55;8.20;99.90
5334;DHT22;2689;50.954;7.116;2023-02-01T10:52:31;8.40;99.90
5334;DHT22;2689;50.954;7.116;2023-02-01T10:55:25;8.50;99.90
5334;DHT22;2689;50.954;7.116;2023-02-01T10:57:56;8.50;99.90
5334;DHT22;2689;50.954;7.116;2023-02-01T11:00:24;8.60;99.90
5334;DHT22;2689;50.954;7.116;2023-02-01T11:02:50;8.70;99.90
5334;DHT22;2689;50.954;7.116;2023-02-01T11:05:19;8.70;99.90
5334;DHT22;2689;50.954;7.116;2023-02-01T11:07:49;8.80;99.90
5334;DHT22;2689;50.954;7.116;2023-02-01T11:10:34;8.50;99.90
5334;DHT22;2689;50.954;7.116;2023-02-01T11:13:02;8.40;99.90
5334;DHT22;2689;50.954;7.116;2023-02-01T11:15:29;8.40;99.90
5334;DHT22;2689;50.954;7.116;2023-02-01T11:18:14;8.40;99.90
5334;DHT22;2689;50.954;7.116;2023-02-01T11:20:42;8.40;99.90
5334;DHT22;2689;50.954;7.116;2023-02-01T11:23:15;8.40;99.90
5334;DHT22;2689;50.954;7.116;2023-02-01T11:25:49;8.40;99.90
5334;DHT22;2689;50.954;7.116;2023-02-01T11:28:16;8.20;99.90
5334;DHT22;2689;50.954;7.116;2023-02-01T11:30:45;8.20;99.90
5334;DHT22;2689;50.954;7.116;2023-02-01T11:33:15;8.10;99.90
5334;DHT22;2689;50.954;7.116;2023-02-01T11:35:44;8.20;99.90
5334;DHT22;2689;50.954;7.116;2023-02-01T11:38:21;8.30;99.90
5334;DHT22;2689;50.954;7.116;2023-02-01T11:40:48;8.30;99.90
5334;DHT22;2689;50.954;7.116;2023-02-01T11:43:22;8.30;99.90
5334;DHT22;2689;50.954;7.116;2023-02-01T11:45:57;8.50;99.90
5334;DHT22;2689;50.954;7.116;2023-02-01T11:48:25;8.50;99.90
5334;DHT22;2689;50.954;7.116;2023-02-01T11:51:02;8.40;99.90
5334;DHT22;2689;50.954;7.116;2023-02-01T11:53:46;8.40;99.90
5334;DHT22;2689;50.954;7.116;2023-02-01T11:56:25;8.40;99.90
5334;DHT22;2689;50.954;7.116;2023-02-01T11:59:09;8.40;99.90
5334;DHT22;2689;50.954;7.116;2023-02-01T12:01:55;8.30;99.90
5334;DHT22;2689;50.954;7.116;2023-02-01T12:07:33;8.40;99.90
5334;DHT22;2689;50.954;7.116;2023-02-01T12:10:20;8.40;99.90
5334;DHT22;2689;50.954;7.116;2023-02-01T12:12:56;8.50;99.90
5334;DHT22;2689;50.954;7.116;2023-02-01T12:15:35;8.60;99.90
5334;DHT22;2689;50.954;7.116;2023-02-01T12:18:28;8.60;99.90
5334;DHT22;2689;50.954;7.116;2023-02-01T12:21:06;8.60;99.90
5334;DHT22;2689;50.954;7.116;2023-02-01T12:26:38;8.50;99.90
5334;DHT22;2689;50.954;7.116;2023-02-01T12:29:29;8.40;99.90
5334;DHT22;2689;50.954;7.116;2023-02-01T12:32:09;8.40;99.90
5334;DHT22;2689;50.954;7.116;2023-02-01T12:34:58;8.40;99.90
5334;DHT22;2689;50.954;7.116;2023-02-01T12:37:41;8.50;99.90
5334;DHT22;2689;50.954;7.116;2023-02-01T12:40:21;8.50;99.90
5334;DHT22;2689;50.954;7.116;2023-02-01T12:42:59;8.50;99.90
5334;DHT22;2689;50.954;7.116;2023-02-01T12:45:31;8.50;99.90
5334;DHT22;2689;50.954;7.116;2023-02-01T12:48:08;9.40;99.90
5334;DHT22;2689;50.954;7.116;2023-02-01T12:50:45;8.30;99.90
5334;DHT22;2689;50.954;7.116;2023-02-01T12:53:17;8.50;99.90
5334;DHT22;2689;50.954;7.116;2023-02-01T12:55:49;9.00;99.90
5334;DHT22;2689;50.954;7.116;2023-02-01T12:58:20;8.60;99.90
5334;DHT22;2689;50.954;7.116;2023-02-01T13:00:51;8.50;99.90
5334;DHT22;2689;50.954;7.116;2023-02-01T13:03:29;8.60;99.90
5334;DHT22;2689;50.954;7.116;2023-02-01T13:06:01;8.50;99.90
5334;DHT22;2689;50.954;7.116;2023-02-01T13:08:38;8.50;99.90
5334;DHT22;2689;50.954;7.116;2023-02-01T13:11:12;8.50;99.90
5334;DHT22;2689;50.954;7.116;2023-02-01T13:13:46;8.50;99.90
5334;DHT22;2689;50.954;7.116;2023-02-01T13:16:17;8.50;99.90
5334;DHT22;2689;50.954;7.116;2023-02-01T13:18:50;8.50;99.90
5334;DHT22;2689;50.954;7.116;2023-02-01T13:21:20;8.50;99.90
5334;DHT22;2689;50.954;7.116;2023-02-01T13:23:49;8.40;99.90
5334;DHT22;2689;50.954;7.116;2023-02-01T13:26:18;8.30;99.90
5334;DHT22;2689;50.954;7.116;2023-02-01T13:28:47;8.50;99.90
5334;DHT22;2689;50.954;7.116;2023-02-01T13:31:27;8.50;99.90
5334;DHT22;2689;50.954;7.116;2023-02-01T13:34:26;8.80;99.90
5334;DHT22;2689;50.954;7.116;2023-02-01T13:37:05;8.50;99.90
5334;DHT22;2689;50.954;7.116;2023-02-01T13:40:10;8.40;99.90
5334;DHT22;2689;50.954;7.116;2023-02-01T13:42:48;8.50;99.90
5334;DHT22;2689;50.954;7.116;2023-02-01T13:45:18;8.40;99.90
5334;DHT22;2689;50.954;7.116;2023-02-01T13:47:48;8.40;99.90
5334;DHT22;2689;50.954;7.116;2023-02-01T13:50:21;8.40;99.90
5334;DHT22;2689;50.954;7.116;2023-02-01T13:52:53;8.40;99.90
5334;DHT22;2689;50.954;7.116;2023-02-01T13:55:29;8.40;99.90
5334;DHT22;2689;50.954;7.116;2023-02-01T13:58:11;8.40;99.90
5334;DHT22;2689;50.954;7.116;2023-02-01T14:00:40;8.40;99.90
5334;DHT22;2689;50.954;7.116;2023-02-01T14:03:14;8.40;99.90
5334;DHT22;2689;50.954;7.116;2023-02-01T14:06:03;8.40;99.90
5334;DHT22;2689;50.954;7.116;2023-02-01T14:09:11;8.40;99.90
5334;DHT22;2689;50.954;7.116;2023-02-01T14:11:41;8.40;99.90
5334;DHT22;2689;50.954;7.116;2023-02-01T14:17:36;8.50;99.90
5334;DHT22;2689;50.954;7.116;2023-02-01T14:23:19;8.50;99.90
5334;DHT22;2689;50.954;7.116;2023-02-01T14:25:58;8.80;99.90
5334;DHT22;2689;50.954;7.116;2023-02-01T14:28:29;8.40;99.90
5334;DHT22;2689;50.954;7.116;2023-02-01T14:30:57;8.50;99.90
5334;DHT22;2689;50.954;7.116;2023-02-01T14:33:27;8.60;99.90
5334;DHT22;2689;50.954;7.116;2023-02-01T14:36:04;8.60;99.90
5334;DHT22;2689;50.954;7.116;2023-02-01T14:38:32;8.60;99.90
5334;DHT22;2689;50.954;7.116;2023-02-01T14:41:18;8.60;99.90
5334;DHT22;2689;50.954;7.116;2023-02-01T14:53:17;8.70;99.90
5334;DHT22;2689;50.954;7.116;2023-02-01T14:55:49;8.80;99.90
5334;DHT22;2689;50.954;7.116;2023-02-01T14:58:23;8.70;99.90
5334;DHT22;2689;50.954;7.116;2023-02-01T15:00:55;8.70;99.90
5334;DHT22;2689;50.954;7.116;2023-02-01T15:03:32;8.70;99.90
5334;DHT22;2689;50.954;7.116;2023-02-01T15:06:00;8.70;99.90
5334;DHT22;2689;50.954;7.116;2023-02-01T15:08:33;8.70;99.90
5334;DHT22;2689;50.954;7.116;2023-02-01T15:11:06;8.70;99.90
5334;DHT22;2689;50.954;7.116;2023-02-01T15:13:35;8.80;99.90
5334;DHT22;2689;50.954;7.116;2023-02-01T15:16:04;8.70;99.90
5334;DHT22;2689;50.954;7.116;2023-02-01T15:18:32;8.80;99.90
5334;DHT22;2689;50.954;7.116;2023-02-01T15:21:00;9.80;99.90
5334;DHT22;2689;50.954;7.116;2023-02-01T15:23:34;8.80;99.90
5334;DHT22;2689;50.954;7.116;2023-02-01T15:26:01;8.90;99.90
5334;DHT22;2689;50.954;7.116;2023-02-01T15:28:28;9.40;99.90
5334;DHT22;2689;50.954;7.116;2023-02-01T15:30:59;8.50;99.90
5334;DHT22;2689;50.954;7.116;2023-02-01T15:33:27;8.80;99.90
5334;DHT22;2689;50.954;7.116;2023-02-01T15:35:55;8.70;99.90
5334;DHT22;2689;50.954;7.116;2023-02-01T15:38:38;8.80;99.90
5334;DHT22;2689;50.954;7.116;2023-02-01T15:41:11;8.80;99.90
5334;DHT22;2689;50.954;7.116;2023-02-01T15:43:41;8.80;99.90
5334;DHT22;2689;50.954;7.116;2023-02-01T15:46:11;8.80;99.90
5334;DHT22;2689;50.954;7.116;2023-02-01T15:48:42;8.70;99.90
5334;DHT22;2689;50.954;7.116;2023-02-01T15:51:17;8.80;99.90
5334;DHT22;2689;50.954;7.116;2023-02-01T15:53:48;8.80;99.90
5334;DHT22;2689;50.954;7.116;2023-02-01T15:56:22;8.80;99.90
5334;DHT22;2689;50.954;7.116;2023-02-01T15:58:53;9.50;99.90
5334;DHT22;2689;50.954;7.116;2023-02-01T16:01:21;8.80;99.90
5334;DHT22;2689;50.954;7.116;2023-02-01T16:03:49;8.80;99.90
5334;DHT22;2689;50.954;7.116;2023-02-01T16:06:28;8.80;99.90
5334;DHT22;2689;50.954;7.116;2023-02-01T16:09:02;8.80;99.90
5334;DHT22;2689;50.954;7.116;2023-02-01T16:11:30;8.80;99.90
5334;DHT22;2689;50.954;7.116;2023-02-01T16:13:58;8.80;99.90
5334;DHT22;2689;50.954;7.116;2023-02-01T16:16:27;8.80;99.90
5334;DHT22;2689;50.954;7.116;2023-02-01T16:18:54;8.80;99.90
5334;DHT22;2689;50.954;7.116;2023-02-01T16:21:21;9.50;99.90
5334;DHT22;2689;50.954;7.116;2023-02-01T16:23:49;9.30;99.90
5334;DHT22;2689;50.954;7.116;2023-02-01T16:26:18;8.80;99.90
5334;DHT22;2689;50.954;7.116;2023-02-01T16:28:47;8.70;99.90
5334;DHT22;2689;50.954;7.116;2023-02-01T16:31:17;8.80;99.90
5334;DHT22;2689;50.954;7.116;2023-02-01T16:33:46;8.90;99.90
5334;DHT22;2689;50.954;7.116;2023-02-01T16:36:13;8.50;99.90
5334;DHT22;2689;50.954;7.116;2023-02-01T16:38:40;9.20;99.90
5334;DHT22;2689;50.954;7.116;2023-02-01T16:41:11;8.80;99.90
5334;DHT22;2689;50.954;7.116;2023-02-01T16:43:40;8.80;99.90
5334;DHT22;2689;50.954;7.116;2023-02-01T16:46:12;8.60;99.90
5334;DHT22;2689;50.954;7.116;2023-02-01T16:48:41;8.50;99.90
5334;DHT22;2689;50.954;7.116;2023-02-01T16:51:11;8.60;99.90
5334;DHT22;2689;50.954;7.116;2023-02-01T16:53:39;9.30;99.90
5334;DHT22;2689;50.954;7.116;2023-02-01T16:56:13;8.60;99.90
5334;DHT22;2689;50.954;7.116;2023-02-01T16:58:42;8.50;99.90
5334;DHT22;2689;50.954;7.116;2023-02-01T17:01:10;8.50;99.90
5334;DHT22;2689;50.954;7.116;2023-02-01T17:03:37;8.40;99.90
5334;DHT22;2689;50.954;7.116;2023-02-01T17:06:05;8.50;99.90
5334;DHT22;2689;50.954;7.116;2023-02-01T17:08:34;8.50;99.90
5334;DHT22;2689;50.954;7.116;2023-02-01T17:11:02;8.50;99.90
5334;DHT22;2689;50.954;7.116;2023-02-01T17:13:29;8.50;99.90
5334;DHT22;2689;50.954;7.116;2023-02-01T17:15:59;8.50;99.90
5334;DHT22;2689;50.954;7.116;2023-02-01T17:18:28;8.30;99.90
5334;DHT22;2689;50.954;7.116;2023-02-01T17:20:57;8.80;99.90
5334;DHT22;2689;50.954;7.116;2023-02-01T17:23:24;8.30;99.90
5334;DHT22;2689;50.954;7.116;2023-02-01T17:25:53;8.30;99.90
5334;DHT22;2689;50.954;7.116;2023-02-01T17:28:20;8.30;99.90
5334;DHT22;2689;50.954;7.116;2023-02-01T17:30:47;8.20;99.90
5334;DHT22;2689;50.954;7.116;2023-02-01T17:33:20;8.30;99.90
5334;DHT22;2689;50.954;7.116;2023-02-01T17:35:48;8.20;99.90